sensor_id;sensor_type;location;lat;lon;timestamp;temperature;humidity
50738;DHT22;36703;48.154;17.126;2023-09-12T00:00:05;27.80;67.10
50738;DHT22;36703;48.154;17.126;2023-09-12T00:04:13;27.80;66.20
50738;DHT22;36703;48.154;17.126;2023-09-12T00:08:14;27.80;64.80
50738;DHT22;36703;48.154;17.126;2023-09-12T00:12:16;27.80;64.00
50738;DHT22;36703;48.154;17.126;2023-09-12T00:16:18;27.80;63.60
50738;DHT22;36703;48.154;17.126;2023-09-12T00:20:19;27.70;64.60
50738;DHT22;36703;48.154;17.126;2023-09-12T00:24:21;27.60;64.60
50738;DHT22;36703;48.154;17.126;2023-09-12T00:28:23;27.50;62.10
50738;DHT22;36703;48.154;17.126;2023-09-12T00:32:24;27.40;67.10
50738;DHT22;36703;48.154;17.126;2023-09-12T00:36:26;27.40;68.90
50738;DHT22;36703;48.154;17.126;2023-09-12T00:40:28;27.40;69.00
50738;DHT22;36703;48.154;17.126;2023-09-12T00:44:30;27.40;68.90
50738;DHT22;36703;48.154;17.126;2023-09-12T00:48:32;27.40;69.20
50738;DHT22;36703;48.154;17.126;2023-09-12T00:52:34;27.40;69.70
50738;DHT22;36703;48.154;17.126;2023-09-12T00:56:38;27.40;69.50
50738;DHT22;36703;48.154;17.126;2023-09-12T01:00:41;27.40;69.80
50738;DHT22;36703;48.154;17.126;2023-09-12T01:04:42;27.30;70.00
50738;DHT22;36703;48.154;17.126;2023-09-12T01:08:44;27.30;69.90
50738;DHT22;36703;48.154;17.126;2023-09-12T01:12:45;27.30;70.40
50738;DHT22;36703;48.154;17.126;2023-09-12T01:16:47;27.20;70.40
50738;DHT22;36703;48.154;17.126;2023-09-12T01:25:42;27.10;70.40
50738;DHT22;36703;48.154;17.126;2023-09-12T01:30:06;27.00;70.20
50738;DHT22;36703;48.154;17.126;2023-09-12T01:46:23;26.80;79.40
50738;DHT22;36703;48.154;17.126;2023-09-12T01:50:27;26.80;61.70
50738;DHT22;36703;48.154;17.126;2023-09-12T01:54:29;26.80;59.20
50738;DHT22;36703;48.154;17.126;2023-09-12T01:58:31;26.70;57.70
50738;DHT22;36703;48.154;17.126;2023-09-12T02:02:33;26.70;58.00
50738;DHT22;36703;48.154;17.126;2023-09-12T02:06:35;26.60;57.60
50738;DHT22;36703;48.154;17.126;2023-09-12T02:10:36;26.60;57.70
50738;DHT22;36703;48.154;17.126;2023-09-12T02:14:38;26.60;57.40
50738;DHT22;36703;48.154;17.126;2023-09-12T02:18:40;26.60;57.40
50738;DHT22;36703;48.154;17.126;2023-09-12T02:22:41;26.60;57.60
50738;DHT22;36703;48.154;17.126;2023-09-12T02:26:43;26.50;57.70
50738;DHT22;36703;48.154;17.126;2023-09-12T02:30:45;26.50;59.70
50738;DHT22;36703;48.154;17.126;2023-09-12T02:34:47;26.50;63.10
50738;DHT22;36703;48.154;17.126;2023-09-12T02:38:48;26.50;70.40
50738;DHT22;36703;48.154;17.126;2023-09-12T02:42:50;26.50;69.90
50738;DHT22;36703;48.154;17.126;2023-09-12T02:46:52;26.50;64.70
50738;DHT22;36703;48.154;17.126;2023-09-12T02:50:53;26.40;63.10
50738;DHT22;36703;48.154;17.126;2023-09-12T02:54:55;26.40;63.70
50738;DHT22;36703;48.154;17.126;2023-09-12T02:58:57;26.50;64.30
50738;DHT22;36703;48.154;17.126;2023-09-12T03:02:58;26.50;64.90
50738;DHT22;36703;48.154;17.126;2023-09-12T03:07:00;26.50;64.70
50738;DHT22;36703;48.154;17.126;2023-09-12T03:11:01;26.50;65.40
50738;DHT22;36703;48.154;17.126;2023-09-12T03:15:04;26.50;66.50
50738;DHT22;36703;48.154;17.126;2023-09-12T03:19:06;26.50;67.20
50738;DHT22;36703;48.154;17.126;2023-09-12T03:23:08;26.50;68.20
50738;DHT22;36703;48.154;17.126;2023-09-12T03:27:10;26.40;69.70
50738;DHT22;36703;48.154;17.126;2023-09-12T03:31:13;26.40;70.70
50738;DHT22;36703;48.154;17.126;2023-09-12T03:35:16;26.40;70.70
50738;DHT22;36703;48.154;17.126;2023-09-12T03:39:17;26.30;72.30
50738;DHT22;36703;48.154;17.126;2023-09-12T03:47:26;26.10;83.00
50738;DHT22;36703;48.154;17.126;2023-09-12T03:51:27;26.30;65.80
50738;DHT22;36703;48.154;17.126;2023-09-12T03:55:29;26.30;66.60
50738;DHT22;36703;48.154;17.126;2023-09-12T04:15:38;26.00;80.80
50738;DHT22;36703;48.154;17.126;2023-09-12T04:44:11;26.20;80.80
50738;DHT22;36703;48.154;17.126;2023-09-12T04:48:12;26.10;69.30
50738;DHT22;36703;48.154;17.126;2023-09-12T04:52:14;26.10;69.90
50738;DHT22;36703;48.154;17.126;2023-09-12T04:56:15;26.10;65.10
50738;DHT22;36703;48.154;17.126;2023-09-12T05:00:17;26.00;63.60
50738;DHT22;36703;48.154;17.126;2023-09-12T05:04:19;26.10;65.30
50738;DHT22;36703;48.154;17.126;2023-09-12T05:08:21;26.10;65.20
50738;DHT22;36703;48.154;17.126;2023-09-12T05:12:22;26.00;65.40
50738;DHT22;36703;48.154;17.126;2023-09-12T05:16:24;26.00;65.90
50738;DHT22;36703;48.154;17.126;2023-09-12T05:20:26;26.10;66.60
50738;DHT22;36703;48.154;17.126;2023-09-12T05:24:28;26.10;67.20
50738;DHT22;36703;48.154;17.126;2023-09-12T05:28:29;26.10;68.90
50738;DHT22;36703;48.154;17.126;2023-09-12T05:32:31;26.10;68.50
50738;DHT22;36703;48.154;17.126;2023-09-12T05:36:33;26.10;68.60
50738;DHT22;36703;48.154;17.126;2023-09-12T05:40:34;26.10;68.70
50738;DHT22;36703;48.154;17.126;2023-09-12T05:44:36;26.20;69.30
50738;DHT22;36703;48.154;17.126;2023-09-12T06:37:11;26.90;74.00
50738;DHT22;36703;48.154;17.126;2023-09-12T06:53:18;27.20;70.90
50738;DHT22;36703;48.154;17.126;2023-09-12T06:57:19;27.30;72.80
50738;DHT22;36703;48.154;17.126;2023-09-12T07:01:21;27.30;68.00
50738;DHT22;36703;48.154;17.126;2023-09-12T07:05:22;27.40;68.30
50738;DHT22;36703;48.154;17.126;2023-09-12T07:09:24;27.40;68.10
50738;DHT22;36703;48.154;17.126;2023-09-12T07:13:25;27.50;68.10
50738;DHT22;36703;48.154;17.126;2023-09-12T07:17:28;27.60;69.10
50738;DHT22;36703;48.154;17.126;2023-09-12T07:21:30;27.60;68.20
50738;DHT22;36703;48.154;17.126;2023-09-12T07:25:38;27.70;69.90
50738;DHT22;36703;48.154;17.126;2023-09-12T07:29:41;27.80;69.90
50738;DHT22;36703;48.154;17.126;2023-09-12T07:33:43;27.90;69.50
50738;DHT22;36703;48.154;17.126;2023-09-12T07:37:44;27.90;71.30
50738;DHT22;36703;48.154;17.126;2023-09-12T07:41:46;28.00;71.00
50738;DHT22;36703;48.154;17.126;2023-09-12T07:45:48;28.10;71.90
50738;DHT22;36703;48.154;17.126;2023-09-12T07:49:54;28.10;73.10
50738;DHT22;36703;48.154;17.126;2023-09-12T07:53:55;28.20;73.60
50738;DHT22;36703;48.154;17.126;2023-09-12T07:57:57;28.20;76.10
50738;DHT22;36703;48.154;17.126;2023-09-12T08:01:58;28.30;73.40
50738;DHT22;36703;48.154;17.126;2023-09-12T08:06:00;28.40;71.40
50738;DHT22;36703;48.154;17.126;2023-09-12T08:14:03;28.30;75.10
50738;DHT22;36703;48.154;17.126;2023-09-12T08:18:05;28.50;75.00
50738;DHT22;36703;48.154;17.126;2023-09-12T08:22:08;28.60;71.20
50738;DHT22;36703;48.154;17.126;2023-09-12T08:26:10;28.70;72.70
50738;DHT22;36703;48.154;17.126;2023-09-12T08:30:13;28.70;70.90
50738;DHT22;36703;48.154;17.126;2023-09-12T08:34:14;28.90;71.20
50738;DHT22;36703;48.154;17.126;2023-09-12T08:38:16;29.00;70.40
50738;DHT22;36703;48.154;17.126;2023-09-12T08:42:18;29.10;74.00
50738;DHT22;36703;48.154;17.126;2023-09-12T08:46:20;29.20;75.20
50738;DHT22;36703;48.154;17.126;2023-09-12T08:50:22;29.20;72.80
50738;DHT22;36703;48.154;17.126;2023-09-12T08:54:26;29.40;71.00
50738;DHT22;36703;48.154;17.126;2023-09-12T08:58:28;29.50;70.90
50738;DHT22;36703;48.154;17.126;2023-09-12T09:02:30;29.70;71.00
50738;DHT22;36703;48.154;17.126;2023-09-12T09:06:32;29.80;69.80
50738;DHT22;36703;48.154;17.126;2023-09-12T09:10:38;29.90;70.10
50738;DHT22;36703;48.154;17.126;2023-09-12T09:14:39;30.00;70.20
50738;DHT22;36703;48.154;17.126;2023-09-12T09:19:07;30.20;70.70
50738;DHT22;36703;48.154;17.126;2023-09-12T09:23:12;30.30;71.80
50738;DHT22;36703;48.154;17.126;2023-09-12T09:27:32;30.50;70.70
50738;DHT22;36703;48.154;17.126;2023-09-12T09:31:39;30.70;70.80
50738;DHT22;36703;48.154;17.126;2023-09-12T09:35:42;31.10;70.40
50738;DHT22;36703;48.154;17.126;2023-09-12T09:43:52;31.80;68.90
50738;DHT22;36703;48.154;17.126;2023-09-12T09:47:57;32.30;69.50
50738;DHT22;36703;48.154;17.126;2023-09-12T09:52:06;32.70;68.00
50738;DHT22;36703;48.154;17.126;2023-09-12T09:56:08;33.10;69.70
50738;DHT22;36703;48.154;17.126;2023-09-12T10:00:10;33.40;67.10
50738;DHT22;36703;48.154;17.126;2023-09-12T10:04:16;33.60;62.90
50738;DHT22;36703;48.154;17.126;2023-09-12T10:08:20;33.90;62.70
50738;DHT22;36703;48.154;17.126;2023-09-12T10:12:24;34.20;62.80
50738;DHT22;36703;48.154;17.126;2023-09-12T10:16:57;34.40;63.40
50738;DHT22;36703;48.154;17.126;2023-09-12T10:21:28;34.60;64.60
50738;DHT22;36703;48.154;17.126;2023-09-12T10:25:35;34.80;66.20
50738;DHT22;36703;48.154;17.126;2023-09-12T10:29:37;35.10;61.40
50738;DHT22;36703;48.154;17.126;2023-09-12T10:37:44;35.60;68.50
50738;DHT22;36703;48.154;17.126;2023-09-12T10:41:47;35.60;66.50
50738;DHT22;36703;48.154;17.126;2023-09-12T10:45:51;35.50;65.80
50738;DHT22;36703;48.154;17.126;2023-09-12T10:49:53;35.50;65.60
50738;DHT22;36703;48.154;17.126;2023-09-12T10:53:56;35.60;64.80
50738;DHT22;36703;48.154;17.126;2023-09-12T10:58:09;35.60;64.60
50738;DHT22;36703;48.154;17.126;2023-09-12T11:02:28;35.70;63.70
50738;DHT22;36703;48.154;17.126;2023-09-12T11:06:31;35.90;64.00
50738;DHT22;36703;48.154;17.126;2023-09-12T11:14:43;35.70;64.80
50738;DHT22;36703;48.154;17.126;2023-09-12T11:19:21;35.90;63.90
50738;DHT22;36703;48.154;17.126;2023-09-12T11:23:24;35.90;63.80
50738;DHT22;36703;48.154;17.126;2023-09-12T11:56:41;37.50;65.50
50738;DHT22;36703;48.154;17.126;2023-09-12T12:00:44;37.60;63.30
50738;DHT22;36703;48.154;17.126;2023-09-12T12:09:00;37.40;63.70
50738;DHT22;36703;48.154;17.126;2023-09-12T12:13:02;37.10;62.00
50738;DHT22;36703;48.154;17.126;2023-09-12T12:17:11;36.90;62.10
50738;DHT22;36703;48.154;17.126;2023-09-12T12:21:14;36.80;61.40
50738;DHT22;36703;48.154;17.126;2023-09-12T12:25:16;36.60;60.80
50738;DHT22;36703;48.154;17.126;2023-09-12T12:29:17;36.40;60.00
50738;DHT22;36703;48.154;17.126;2023-09-12T12:33:19;36.30;59.40
50738;DHT22;36703;48.154;17.126;2023-09-12T12:37:20;36.30;58.40
50738;DHT22;36703;48.154;17.126;2023-09-12T12:41:29;36.30;57.80
50738;DHT22;36703;48.154;17.126;2023-09-12T12:45:30;36.30;57.40
50738;DHT22;36703;48.154;17.126;2023-09-12T12:49:37;36.40;57.40
50738;DHT22;36703;48.154;17.126;2023-09-12T12:53:43;36.50;57.00
50738;DHT22;36703;48.154;17.126;2023-09-12T12:57:48;36.50;56.80
50738;DHT22;36703;48.154;17.126;2023-09-12T13:01:50;36.60;56.40
50738;DHT22;36703;48.154;17.126;2023-09-12T13:05:52;36.70;56.40
50738;DHT22;36703;48.154;17.126;2023-09-12T13:09:53;36.70;56.20
50738;DHT22;36703;48.154;17.126;2023-09-12T13:13:55;36.60;56.10
50738;DHT22;36703;48.154;17.126;2023-09-12T13:17:57;36.50;56.00
50738;DHT22;36703;48.154;17.126;2023-09-12T13:21:58;36.60;55.90
50738;DHT22;36703;48.154;17.126;2023-09-12T13:26:00;36.60;55.90
50738;DHT22;36703;48.154;17.126;2023-09-12T13:30:02;36.50;55.60
50738;DHT22;36703;48.154;17.126;2023-09-12T13:34:04;36.50;55.30
50738;DHT22;36703;48.154;17.126;2023-09-12T13:38:06;36.50;55.40
50738;DHT22;36703;48.154;17.126;2023-09-12T13:42:10;36.40;55.20
50738;DHT22;36703;48.154;17.126;2023-09-12T13:46:12;36.30;54.80
50738;DHT22;36703;48.154;17.126;2023-09-12T13:50:14;36.30;55.00
50738;DHT22;36703;48.154;17.126;2023-09-12T13:54:16;36.10;54.80
50738;DHT22;36703;48.154;17.126;2023-09-12T13:58:18;35.90;55.20
50738;DHT22;36703;48.154;17.126;2023-09-12T14:02:19;36.20;55.50
50738;DHT22;36703;48.154;17.126;2023-09-12T14:06:21;35.60;55.40
50738;DHT22;36703;48.154;17.126;2023-09-12T14:10:23;35.40;55.60
50738;DHT22;36703;48.154;17.126;2023-09-12T14:14:24;35.30;55.90
50738;DHT22;36703;48.154;17.126;2023-09-12T14:18:26;35.20;55.60
50738;DHT22;36703;48.154;17.126;2023-09-12T14:22:27;35.10;55.90
50738;DHT22;36703;48.154;17.126;2023-09-12T14:26:30;35.10;55.90
50738;DHT22;36703;48.154;17.126;2023-09-12T14:30:32;35.00;56.20
50738;DHT22;36703;48.154;17.126;2023-09-12T14:34:36;34.90;56.00
50738;DHT22;36703;48.154;17.126;2023-09-12T14:38:38;34.90;56.30
50738;DHT22;36703;48.154;17.126;2023-09-12T14:42:39;34.80;56.30
50738;DHT22;36703;48.154;17.126;2023-09-12T14:46:41;34.80;56.50
50738;DHT22;36703;48.154;17.126;2023-09-12T14:50:42;34.70;56.20
50738;DHT22;36703;48.154;17.126;2023-09-12T14:54:50;34.60;56.20
50738;DHT22;36703;48.154;17.126;2023-09-12T14:58:52;34.60;56.30
50738;DHT22;36703;48.154;17.126;2023-09-12T15:02:54;34.50;56.70
50738;DHT22;36703;48.154;17.126;2023-09-12T15:06:55;34.30;56.70
50738;DHT22;36703;48.154;17.126;2023-09-12T15:10:57;34.20;57.10
50738;DHT22;36703;48.154;17.126;2023-09-12T15:14:58;34.10;57.50
50738;DHT22;36703;48.154;17.126;2023-09-12T15:19:00;34.00;57.60
50738;DHT22;36703;48.154;17.126;2023-09-12T15:23:04;33.90;57.60
50738;DHT22;36703;48.154;17.126;2023-09-12T15:27:06;33.90;57.90
50738;DHT22;36703;48.154;17.126;2023-09-12T15:31:08;33.80;57.90
50738;DHT22;36703;48.154;17.126;2023-09-12T15:35:09;33.70;58.20
50738;DHT22;36703;48.154;17.126;2023-09-12T15:39:12;33.70;58.40
50738;DHT22;36703;48.154;17.126;2023-09-12T15:43:14;33.50;57.80
50738;DHT22;36703;48.154;17.126;2023-09-12T15:47:15;33.50;58.10
50738;DHT22;36703;48.154;17.126;2023-09-12T15:51:17;33.50;58.30
50738;DHT22;36703;48.154;17.126;2023-09-12T15:55:19;33.40;59.00
50738;DHT22;36703;48.154;17.126;2023-09-12T15:59:21;33.30;58.90
50738;DHT22;36703;48.154;17.126;2023-09-12T16:03:22;33.20;58.70
50738;DHT22;36703;48.154;17.126;2023-09-12T16:07:24;33.20;59.10
50738;DHT22;36703;48.154;17.126;2023-09-12T16:11:25;33.20;59.10
50738;DHT22;36703;48.154;17.126;2023-09-12T16:15:27;33.10;59.20
50738;DHT22;36703;48.154;17.126;2023-09-12T16:19:28;33.10;59.30
50738;DHT22;36703;48.154;17.126;2023-09-12T16:23:30;33.00;59.00
50738;DHT22;36703;48.154;17.126;2023-09-12T16:27:32;33.00;58.80
50738;DHT22;36703;48.154;17.126;2023-09-12T16:31:33;32.90;58.90
50738;DHT22;36703;48.154;17.126;2023-09-12T16:35:35;32.90;58.60
50738;DHT22;36703;48.154;17.126;2023-09-12T16:39:37;32.90;58.70
50738;DHT22;36703;48.154;17.126;2023-09-12T16:43:43;32.90;58.90
50738;DHT22;36703;48.154;17.126;2023-09-12T16:47:44;32.90;58.90
50738;DHT22;36703;48.154;17.126;2023-09-12T16:51:46;32.80;59.10
50738;DHT22;36703;48.154;17.126;2023-09-12T16:55:47;32.90;59.20
50738;DHT22;36703;48.154;17.126;2023-09-12T16:59:49;32.80;59.00
50738;DHT22;36703;48.154;17.126;2023-09-12T17:03:59;32.80;59.40
50738;DHT22;36703;48.154;17.126;2023-09-12T17:08:02;32.80;59.40
50738;DHT22;36703;48.154;17.126;2023-09-12T17:12:04;32.60;59.30
50738;DHT22;36703;48.154;17.126;2023-09-12T17:16:06;32.60;59.30
50738;DHT22;36703;48.154;17.126;2023-09-12T17:20:08;32.50;59.30
50738;DHT22;36703;48.154;17.126;2023-09-12T17:24:10;32.50;59.30
50738;DHT22;36703;48.154;17.126;2023-09-12T17:28:12;32.40;59.40
50738;DHT22;36703;48.154;17.126;2023-09-12T17:32:14;32.30;59.30
50738;DHT22;36703;48.154;17.126;2023-09-12T17:36:16;32.30;59.30
50738;DHT22;36703;48.154;17.126;2023-09-12T17:40:18;32.20;59.50
50738;DHT22;36703;48.154;17.126;2023-09-12T17:44:20;32.10;59.50
50738;DHT22;36703;48.154;17.126;2023-09-12T17:48:21;32.10;59.60
50738;DHT22;36703;48.154;17.126;2023-09-12T17:52:23;32.10;59.90
50738;DHT22;36703;48.154;17.126;2023-09-12T17:56:24;32.10;60.10
50738;DHT22;36703;48.154;17.126;2023-09-12T18:00:26;32.00;60.10
50738;DHT22;36703;48.154;17.126;2023-09-12T18:04:32;31.90;60.00
50738;DHT22;36703;48.154;17.126;2023-09-12T18:08:35;31.80;60.70
50738;DHT22;36703;48.154;17.126;2023-09-12T18:12:36;31.80;60.10
50738;DHT22;36703;48.154;17.126;2023-09-12T18:16:38;31.70;60.10
50738;DHT22;36703;48.154;17.126;2023-09-12T18:20:40;31.70;60.20
50738;DHT22;36703;48.154;17.126;2023-09-12T18:24:41;31.70;60.00
50738;DHT22;36703;48.154;17.126;2023-09-12T18:28:45;31.70;60.10
50738;DHT22;36703;48.154;17.126;2023-09-12T18:32:47;31.60;60.00
50738;DHT22;36703;48.154;17.126;2023-09-12T18:36:49;31.70;59.70
50738;DHT22;36703;48.154;17.126;2023-09-12T18:40:50;31.60;60.20
50738;DHT22;36703;48.154;17.126;2023-09-12T18:44:52;31.60;60.90
50738;DHT22;36703;48.154;17.126;2023-09-12T18:48:53;31.60;60.70
50738;DHT22;36703;48.154;17.126;2023-09-12T18:52:55;31.50;60.50
50738;DHT22;36703;48.154;17.126;2023-09-12T18:56:58;31.50;60.90
50738;DHT22;36703;48.154;17.126;2023-09-12T19:01:01;31.40;61.20
50738;DHT22;36703;48.154;17.126;2023-09-12T19:05:03;31.40;61.10
50738;DHT22;36703;48.154;17.126;2023-09-12T19:09:05;31.40;61.50
50738;DHT22;36703;48.154;17.126;2023-09-12T19:13:07;31.80;62.20
50738;DHT22;36703;48.154;17.126;2023-09-12T19:17:11;31.30;61.70
50738;DHT22;36703;48.154;17.126;2023-09-12T19:21:12;31.20;62.30
50738;DHT22;36703;48.154;17.126;2023-09-12T19:25:14;31.20;62.60
50738;DHT22;36703;48.154;17.126;2023-09-12T19:29:15;31.00;62.30
50738;DHT22;36703;48.154;17.126;2023-09-12T19:33:17;31.00;62.00
50738;DHT22;36703;48.154;17.126;2023-09-12T19:37:19;31.00;62.20
50738;DHT22;36703;48.154;17.126;2023-09-12T19:41:21;31.00;62.90
50738;DHT22;36703;48.154;17.126;2023-09-12T19:45:22;30.80;63.10
50738;DHT22;36703;48.154;17.126;2023-09-12T19:49:24;30.80;63.50
50738;DHT22;36703;48.154;17.126;2023-09-12T19:53:26;30.80;63.50
50738;DHT22;36703;48.154;17.126;2023-09-12T19:57:27;30.80;63.50
50738;DHT22;36703;48.154;17.126;2023-09-12T20:01:29;30.70;63.80
50738;DHT22;36703;48.154;17.126;2023-09-12T20:05:30;30.70;64.00
50738;DHT22;36703;48.154;17.126;2023-09-12T20:09:32;30.70;63.80
50738;DHT22;36703;48.154;17.126;2023-09-12T20:13:33;30.60;63.70
50738;DHT22;36703;48.154;17.126;2023-09-12T20:17:35;30.60;63.50
50738;DHT22;36703;48.154;17.126;2023-09-12T20:21:37;30.50;63.30
50738;DHT22;36703;48.154;17.126;2023-09-12T20:25:39;30.50;63.50
50738;DHT22;36703;48.154;17.126;2023-09-12T20:29:40;30.50;63.90
50738;DHT22;36703;48.154;17.126;2023-09-12T20:33:42;30.50;63.70
50738;DHT22;36703;48.154;17.126;2023-09-12T20:37:43;30.40;64.00
50738;DHT22;36703;48.154;17.126;2023-09-12T20:41:45;30.40;64.00
50738;DHT22;36703;48.154;17.126;2023-09-12T20:45:51;30.40;64.60
50738;DHT22;36703;48.154;17.126;2023-09-12T20:49:54;30.40;64.90
50738;DHT22;36703;48.154;17.126;2023-09-12T20:53:58;30.30;64.70
50738;DHT22;36703;48.154;17.126;2023-09-12T20:58:05;30.20;65.10
50738;DHT22;36703;48.154;17.126;2023-09-12T21:02:06;30.20;64.50
50738;DHT22;36703;48.154;17.126;2023-09-12T21:06:08;30.20;64.00
50738;DHT22;36703;48.154;17.126;2023-09-12T21:10:10;30.10;64.30
50738;DHT22;36703;48.154;17.126;2023-09-12T21:14:11;30.10;64.00
50738;DHT22;36703;48.154;17.126;2023-09-12T21:18:13;30.00;64.40
50738;DHT22;36703;48.154;17.126;2023-09-12T21:22:15;29.90;64.60
50738;DHT22;36703;48.154;17.126;2023-09-12T21:26:16;29.90;65.20
50738;DHT22;36703;48.154;17.126;2023-09-12T21:30:18;29.90;65.30
50738;DHT22;36703;48.154;17.126;2023-09-12T21:34:20;29.80;65.10
50738;DHT22;36703;48.154;17.126;2023-09-12T21:38:22;29.80;65.30
50738;DHT22;36703;48.154;17.126;2023-09-12T21:42:24;29.80;65.60
50738;DHT22;36703;48.154;17.126;2023-09-12T21:46:25;29.80;66.00
50738;DHT22;36703;48.154;17.126;2023-09-12T21:50:27;29.70;66.30
50738;DHT22;36703;48.154;17.126;2023-09-12T21:54:29;29.70;66.60
50738;DHT22;36703;48.154;17.126;2023-09-12T21:58:30;29.70;66.80
50738;DHT22;36703;48.154;17.126;2023-09-12T22:02:32;29.70;67.50
50738;DHT22;36703;48.154;17.126;2023-09-12T22:06:33;29.60;67.70
50738;DHT22;36703;48.154;17.126;2023-09-12T22:10:38;29.50;68.00
50738;DHT22;36703;48.154;17.126;2023-09-12T22:14:40;29.40;67.40
50738;DHT22;36703;48.154;17.126;2023-09-12T22:18:41;29.40;67.50
50738;DHT22;36703;48.154;17.126;2023-09-12T22:22:46;29.30;67.50
50738;DHT22;36703;48.154;17.126;2023-09-12T22:26:47;29.30;67.80
50738;DHT22;36703;48.154;17.126;2023-09-12T22:30:49;29.20;67.70
50738;DHT22;36703;48.154;17.126;2023-09-12T22:34:51;29.20;67.80
50738;DHT22;36703;48.154;17.126;2023-09-12T22:38:53;29.20;68.30
50738;DHT22;36703;48.154;17.126;2023-09-12T22:42:54;29.10;68.20
50738;DHT22;36703;48.154;17.126;2023-09-12T22:46:56;29.10;68.80
50738;DHT22;36703;48.154;17.126;2023-09-12T22:50:57;29.20;68.40
50738;DHT22;36703;48.154;17.126;2023-09-12T22:54:59;29.20;68.00
50738;DHT22;36703;48.154;17.126;2023-09-12T22:59:01;29.20;67.80
50738;DHT22;36703;48.154;17.126;2023-09-12T23:03:06;29.30;68.00
50738;DHT22;36703;48.154;17.126;2023-09-12T23:07:09;29.30;68.20
50738;DHT22;36703;48.154;17.126;2023-09-12T23:11:10;29.30;68.30
50738;DHT22;36703;48.154;17.126;2023-09-12T23:15:12;29.20;68.00
50738;DHT22;36703;48.154;17.126;2023-09-12T23:19:14;29.20;67.90
50738;DHT22;36703;48.154;17.126;2023-09-12T23:23:15;29.20;67.70
50738;DHT22;36703;48.154;17.126;2023-09-12T23:27:17;29.20;67.80
50738;DHT22;36703;48.154;17.126;2023-09-12T23:31:19;29.20;67.70
50738;DHT22;36703;48.154;17.126;2023-09-12T23:35:20;29.20;67.60
50738;DHT22;36703;48.154;17.126;2023-09-12T23:39:22;29.10;67.70
50738;DHT22;36703;48.154;17.126;2023-09-12T23:43:24;29.00;67.60
50738;DHT22;36703;48.154;17.126;2023-09-12T23:47:25;29.00;67.70
50738;DHT22;36703;48.154;17.126;2023-09-12T23:51:27;28.80;66.60
50738;DHT22;36703;48.154;17.126;2023-09-12T23:55:32;28.90;66.10
50738;DHT22;36703;48.154;17.126;2023-09-12T23:59:34;28.80;65.90
